createdAt,value
2022-12-18T00:01:00.009Z,91.96
2022-12-18T00:02:00.076Z,90.56
2022-12-18T00:03:00.088Z,90.45
2022-12-18T00:04:00.100Z,90.67
2022-12-18T00:04:59.977Z,91.31
2022-12-18T00:05:59.940Z,91.46
2022-12-18T00:06:59.949Z,91.03
2022-12-18T00:07:59.921Z,91.78
2022-12-18T00:08:59.951Z,91.78
2022-12-18T00:09:59.907Z,91.78
2022-12-18T00:11:00.639Z,91.56
2022-12-18T00:11:59.879Z,90.92
2022-12-18T00:13:02.559Z,89.96
2022-12-18T00:13:59.887Z,90.81
2022-12-18T00:14:59.875Z,90.81
2022-12-18T00:15:59.876Z,90.81
2022-12-18T00:16:59.847Z,90.92
2022-12-18T00:17:59.829Z,91.03
2022-12-18T00:18:59.850Z,91.35
2022-12-18T00:19:59.813Z,91.24
2022-12-18T00:20:59.841Z,91.03
2022-12-18T00:21:59.777Z,91.07
2022-12-18T00:22:59.790Z,91.35
2022-12-18T00:23:59.776Z,91.39
2022-12-18T00:24:59.818Z,91.56
2022-12-18T00:25:59.742Z,91.99
2022-12-18T00:26:59.754Z,91.67
2022-12-18T00:27:59.722Z,91.24
2022-12-18T00:28:59.752Z,91.03
2022-12-18T00:29:59.704Z,91.03
2022-12-18T00:30:59.730Z,90.92
2022-12-18T00:31:59.726Z,91.67
2022-12-18T00:32:59.714Z,92.10
2022-12-18T00:33:59.663Z,92.10
2022-12-18T00:34:59.682Z,92.10
2022-12-18T00:35:59.664Z,92.21
2022-12-18T00:36:59.659Z,92.53
2022-12-18T00:37:59.626Z,91.99
2022-12-18T00:38:59.671Z,91.46
2022-12-18T00:39:59.609Z,90.81
2022-12-18T00:40:59.625Z,90.60
2022-12-18T00:41:59.603Z,90.28
2022-12-18T00:42:59.619Z,90.28
2022-12-18T00:43:59.587Z,89.85
2022-12-18T00:44:59.588Z,89.96
2022-12-18T00:45:59.581Z,89.64
2022-12-18T00:46:59.598Z,89.64
2022-12-18T00:47:59.552Z,90.43
2022-12-18T00:48:59.528Z,91.24
2022-12-18T00:49:59.554Z,91.18
2022-12-18T00:50:59.514Z,91.14
2022-12-18T00:51:59.548Z,90.86
2022-12-18T00:52:59.495Z,90.86
2022-12-18T00:53:59.506Z,90.43
2022-12-18T00:55:04.497Z,90.32
2022-12-18T00:55:59.491Z,90.96
2022-12-18T00:56:59.467Z,91.50
2022-12-18T00:57:59.472Z,91.82
2022-12-18T00:58:59.431Z,92.36
2022-12-18T00:59:59.450Z,92.46
2022-12-18T01:00:59.504Z,92.03
2022-12-18T01:01:59.562Z,91.89
2022-12-18T01:02:59.475Z,91.18
2022-12-18T01:03:59.410Z,91.14
2022-12-18T01:04:59.384Z,91.71
2022-12-18T01:05:59.399Z,92.10
2022-12-18T01:06:59.353Z,92.42
2022-12-18T01:07:59.378Z,91.99
2022-12-18T01:08:59.361Z,91.67
2022-12-18T01:09:59.362Z,90.81
2022-12-18T01:10:59.346Z,90.60
2022-12-18T01:11:59.344Z,90.28
2022-12-18T01:12:59.300Z,90.17
2022-12-18T01:13:59.335Z,90.28
2022-12-18T01:14:59.282Z,90.28
2022-12-18T01:15:59.347Z,90.17
2022-12-18T01:16:59.273Z,90.92
2022-12-18T01:17:59.282Z,90.92
2022-12-18T01:18:59.248Z,90.92
2022-12-18T01:19:59.275Z,90.92
2022-12-18T01:20:59.224Z,91.03
2022-12-18T01:21:59.235Z,90.92
2022-12-18T01:22:59.220Z,90.60
2022-12-18T01:23:59.220Z,90.92
2022-12-18T01:24:59.203Z,91.85
2022-12-18T01:25:59.211Z,92.27
2022-12-18T01:26:59.182Z,92.06
2022-12-18T01:27:59.191Z,91.74
2022-12-18T01:28:59.174Z,91.78
2022-12-18T01:29:59.165Z,92.21
2022-12-18T01:30:59.142Z,91.89
2022-12-18T01:31:59.222Z,91.78
2022-12-18T01:32:59.125Z,91.89
2022-12-18T01:33:59.125Z,91.78
2022-12-18T01:34:59.092Z,91.89
2022-12-18T01:35:59.156Z,91.85
2022-12-18T01:36:59.106Z,91.89
2022-12-18T01:37:59.098Z,91.46
2022-12-18T01:38:59.061Z,91.56
2022-12-18T01:39:59.073Z,91.24
2022-12-18T01:40:59.061Z,91.03
2022-12-18T01:41:59.051Z,91.35
2022-12-18T01:42:59.044Z,91.46
2022-12-18T01:43:59.035Z,91.03
2022-12-18T01:44:59.051Z,90.71
2022-12-18T01:45:59.051Z,90.13
2022-12-18T01:46:58.998Z,90.24
2022-12-18T01:47:59.000Z,90.78
2022-12-18T01:48:58.961Z,91.14
2022-12-18T01:49:59.008Z,91.46
2022-12-18T01:50:58.963Z,91.67
2022-12-18T01:51:58.976Z,91.14
2022-12-18T01:52:58.942Z,90.81
2022-12-18T01:53:58.949Z,90.81
2022-12-18T01:54:58.907Z,91.67
2022-12-18T01:55:58.927Z,91.78
2022-12-18T01:56:58.892Z,91.89
2022-12-18T01:57:58.914Z,91.99
2022-12-18T01:58:58.887Z,91.99
2022-12-18T01:59:58.888Z,91.78
2022-12-18T02:00:58.893Z,91.20
2022-12-18T02:01:59.038Z,90.78
2022-12-18T02:02:58.990Z,90.99
2022-12-18T02:03:58.858Z,90.78
2022-12-18T02:04:58.823Z,90.24
2022-12-18T02:05:58.838Z,89.75
2022-12-18T02:06:58.803Z,90.17
2022-12-18T02:07:58.814Z,90.71
2022-12-18T02:08:58.785Z,91.03
2022-12-18T02:09:58.791Z,91.24
2022-12-18T02:10:58.759Z,91.24
2022-12-18T02:11:58.772Z,91.14
2022-12-18T02:12:58.741Z,91.14
2022-12-18T02:13:58.774Z,90.71
2022-12-18T02:14:58.724Z,90.39
2022-12-18T02:15:58.733Z,90.28
2022-12-18T02:16:58.733Z,90.50
2022-12-18T02:17:58.717Z,90.50
2022-12-18T02:18:58.705Z,90.71
2022-12-18T02:19:58.713Z,90.71
2022-12-18T02:20:58.660Z,90.81
2022-12-18T02:21:58.685Z,91.24
2022-12-18T02:22:58.646Z,91.24
2022-12-18T02:23:58.659Z,91.24
2022-12-18T02:24:58.677Z,91.03
2022-12-18T02:25:58.674Z,91.99
2022-12-18T02:26:59.171Z,92.27
2022-12-18T02:27:58.626Z,92.17
2022-12-18T02:28:58.607Z,91.74
2022-12-18T02:29:59.166Z,91.20
2022-12-18T02:30:58.636Z,91.20
2022-12-18T02:31:58.585Z,91.31
2022-12-18T02:32:58.587Z,91.31
2022-12-18T02:33:58.566Z,91.31
2022-12-18T02:34:58.535Z,91.96
2022-12-18T02:35:58.535Z,91.42
2022-12-18T02:36:58.515Z,90.88
2022-12-18T02:37:58.544Z,90.78
2022-12-18T02:38:58.506Z,90.34
2022-12-18T02:39:58.613Z,90.78
2022-12-18T02:40:58.497Z,90.88
2022-12-18T02:41:58.511Z,90.88
2022-12-18T02:42:58.463Z,90.88
2022-12-18T02:43:58.491Z,91.31
2022-12-18T02:44:58.450Z,91.31
2022-12-18T02:45:58.634Z,91.09
2022-12-18T02:46:58.427Z,91.09
2022-12-18T02:47:58.462Z,90.78
2022-12-18T02:48:58.409Z,90.45
2022-12-18T02:49:58.416Z,90.13
2022-12-18T02:50:58.383Z,90.56
2022-12-18T02:51:58.446Z,90.34
2022-12-18T02:52:58.371Z,90.78
2022-12-18T02:53:58.390Z,91.52
2022-12-18T02:54:58.761Z,90.78
2022-12-18T02:55:58.389Z,90.34
2022-12-18T02:56:58.347Z,90.45
2022-12-18T02:57:58.345Z,90.45
2022-12-18T02:58:58.324Z,90.13
2022-12-18T02:59:58.332Z,90.24
2022-12-18T03:00:58.339Z,90.39
2022-12-18T03:01:58.475Z,91.03
2022-12-18T03:02:58.536Z,91.52
2022-12-18T03:03:58.284Z,91.42
2022-12-18T03:04:58.269Z,90.34
2022-12-18T03:05:58.261Z,90.45
2022-12-18T03:06:58.235Z,90.67
2022-12-18T03:07:58.290Z,90.67
2022-12-18T03:08:58.213Z,90.78
2022-12-18T03:09:58.234Z,91.20
2022-12-18T03:10:58.212Z,91.09
2022-12-18T03:11:58.212Z,91.31
2022-12-18T03:12:58.177Z,91.20
2022-12-18T03:13:58.206Z,90.88
2022-12-18T03:14:58.157Z,90.88
2022-12-18T03:15:58.179Z,90.88
2022-12-18T03:16:58.173Z,91.63
2022-12-18T03:17:58.162Z,91.74
2022-12-18T03:18:58.132Z,91.96
2022-12-18T03:19:58.135Z,91.74
2022-12-18T03:20:58.121Z,91.74
2022-12-18T03:21:58.134Z,91.31
2022-12-18T03:22:58.114Z,90.67
2022-12-18T03:23:58.117Z,90.24
2022-12-18T03:24:58.064Z,90.78
2022-12-18T03:26:00.807Z,90.99
2022-12-18T03:26:58.065Z,91.42
2022-12-18T03:27:58.059Z,91.31
2022-12-18T03:28:58.046Z,92.17
2022-12-18T03:29:58.064Z,92.81
2022-12-18T03:31:04.098Z,92.70
2022-12-18T03:31:58.039Z,92.91
2022-12-18T03:33:00.364Z,92.70
2022-12-18T03:33:58.043Z,91.74
2022-12-18T03:34:58.030Z,91.20
2022-12-18T03:35:58.001Z,91.09
2022-12-18T03:36:57.964Z,91.09
2022-12-18T03:37:57.973Z,90.78
2022-12-18T03:38:57.945Z,91.09
2022-12-18T03:39:57.976Z,91.63
2022-12-18T03:40:57.930Z,91.85
2022-12-18T03:41:57.979Z,91.96
2022-12-18T03:42:57.901Z,91.85
2022-12-18T03:43:57.921Z,92.06
2022-12-18T03:44:57.888Z,92.06
2022-12-18T03:45:58.013Z,92.17
2022-12-18T03:46:57.889Z,91.52
2022-12-18T03:47:57.886Z,90.78
2022-12-18T03:48:57.848Z,90.78
2022-12-18T03:49:57.888Z,91.09
2022-12-18T03:50:57.845Z,91.09
2022-12-18T03:51:57.836Z,91.31
2022-12-18T03:52:57.834Z,91.63
2022-12-18T03:53:57.821Z,91.96
2022-12-18T03:54:57.788Z,92.27
2022-12-18T03:55:57.822Z,92.27
2022-12-18T03:56:57.796Z,92.27
2022-12-18T03:57:57.805Z,91.96
2022-12-18T03:58:57.750Z,91.91
2022-12-18T03:59:57.772Z,91.52
2022-12-18T04:00:57.767Z,91.42
2022-12-18T04:01:57.833Z,91.85
2022-12-18T04:02:57.723Z,92.45
2022-12-18T04:03:57.809Z,92.77
2022-12-18T04:04:57.693Z,92.98
2022-12-18T04:05:57.723Z,93.19
2022-12-18T04:06:57.718Z,92.98
2022-12-18T04:07:57.703Z,92.77
2022-12-18T04:08:57.677Z,92.66
2022-12-18T04:09:57.680Z,92.55
2022-12-18T04:10:57.642Z,92.55
2022-12-18T04:11:57.665Z,92.34
2022-12-18T04:12:57.627Z,91.91
2022-12-18T04:13:57.636Z,91.91
2022-12-18T04:14:57.603Z,91.06
2022-12-18T04:15:57.668Z,90.62
2022-12-18T04:16:57.627Z,90.62
2022-12-18T04:17:57.588Z,91.16
2022-12-18T04:18:57.594Z,91.06
2022-12-18T04:19:57.577Z,91.16
2022-12-18T04:20:57.543Z,91.59
2022-12-18T04:21:57.568Z,91.85
2022-12-18T04:22:57.548Z,92.06
2022-12-18T04:23:57.537Z,92.38
2022-12-18T04:24:57.517Z,91.96
2022-12-18T04:25:57.525Z,90.78
2022-12-18T04:26:57.500Z,90.88
2022-12-18T04:27:57.511Z,90.84
2022-12-18T04:28:57.537Z,90.34
2022-12-18T04:29:57.481Z,90.24
2022-12-18T04:30:57.501Z,89.92
2022-12-18T04:31:57.478Z,90.03
2022-12-18T04:32:57.429Z,90.13
2022-12-18T04:33:57.446Z,90.13
2022-12-18T04:34:57.443Z,90.78
2022-12-18T04:35:57.423Z,90.99
2022-12-18T04:36:57.401Z,91.20
2022-12-18T04:37:57.425Z,91.20
2022-12-18T04:38:57.376Z,91.20
2022-12-18T04:39:57.405Z,91.27
2022-12-18T04:40:57.387Z,91.70
2022-12-18T04:41:57.406Z,91.38
2022-12-18T04:42:57.385Z,90.73
2022-12-18T04:43:57.351Z,91.38
2022-12-18T04:44:57.318Z,92.77
2022-12-18T04:45:57.335Z,93.52
2022-12-18T04:46:57.344Z,92.88
2022-12-18T04:47:57.316Z,91.49
2022-12-18T04:48:57.334Z,90.84
2022-12-18T04:49:57.412Z,90.62
2022-12-18T04:50:57.291Z,91.16
2022-12-18T04:51:57.252Z,91.52
2022-12-18T04:52:57.295Z,91.42
2022-12-18T04:53:57.238Z,91.52
2022-12-18T04:54:57.274Z,91.42
2022-12-18T04:55:57.240Z,91.42
2022-12-18T04:56:57.243Z,91.38
2022-12-18T04:57:57.191Z,91.16
2022-12-18T04:58:57.264Z,90.73
2022-12-18T04:59:57.199Z,90.95
2022-12-18T05:00:57.200Z,91.16
2022-12-18T05:01:57.319Z,91.16
2022-12-18T05:02:57.344Z,91.59
2022-12-18T05:03:57.212Z,91.91
2022-12-18T05:04:57.167Z,92.13
2022-12-18T05:05:57.166Z,91.70
2022-12-18T05:06:57.127Z,91.49
2022-12-18T05:07:57.155Z,91.27
2022-12-18T05:08:57.121Z,91.38
2022-12-18T05:09:57.107Z,91.27
2022-12-18T05:10:57.087Z,90.73
2022-12-18T05:11:57.102Z,90.52
2022-12-18T05:12:57.062Z,90.78
2022-12-18T05:13:57.080Z,91.20
2022-12-18T05:14:57.041Z,91.85
2022-12-18T05:15:57.098Z,91.96
2022-12-18T05:17:00.796Z,92.06
2022-12-18T05:17:57.043Z,92.06
2022-12-18T05:18:57.026Z,91.74
2022-12-18T05:19:57.013Z,91.20
2022-12-18T05:20:57.000Z,91.20
2022-12-18T05:21:56.998Z,91.42
2022-12-18T05:22:57.025Z,90.78
2022-12-18T05:23:57.022Z,91.20
2022-12-18T05:24:56.945Z,91.31
2022-12-18T05:25:56.967Z,91.74
2022-12-18T05:26:56.929Z,92.06
2022-12-18T05:27:56.956Z,92.38
2022-12-18T05:28:56.929Z,92.49
2022-12-18T05:29:56.950Z,93.09
2022-12-18T05:30:56.978Z,93.45
2022-12-18T05:31:56.946Z,93.19
2022-12-18T05:32:56.880Z,93.24
2022-12-18T05:33:56.908Z,93.19
2022-12-18T05:34:56.900Z,92.23
2022-12-18T05:35:56.880Z,92.02
2022-12-18T05:36:56.850Z,91.59
2022-12-18T05:37:56.862Z,91.06
2022-12-18T05:38:56.810Z,90.95
2022-12-18T05:39:56.831Z,91.27
2022-12-18T05:40:57.057Z,91.42
2022-12-18T05:41:56.822Z,91.20
2022-12-18T05:42:56.779Z,90.88
2022-12-18T05:43:56.789Z,91.20
2022-12-18T05:44:56.773Z,91.52
2022-12-18T05:45:56.787Z,91.74
2022-12-18T05:46:56.866Z,91.96
2022-12-18T05:47:56.759Z,91.74
2022-12-18T05:48:56.717Z,91.74
2022-12-18T05:49:56.737Z,92.06
2022-12-18T05:50:56.706Z,91.85
2022-12-18T05:51:56.713Z,91.52
2022-12-18T05:52:56.710Z,91.31
2022-12-18T05:53:56.697Z,91.80
2022-12-18T05:54:56.674Z,92.55
2022-12-18T05:55:56.668Z,93.19
2022-12-18T05:56:56.654Z,93.41
2022-12-18T05:57:56.657Z,93.62
2022-12-18T05:58:56.676Z,94.12
2022-12-18T05:59:56.638Z,94.65
2022-12-18T06:00:56.610Z,94.87
2022-12-18T06:01:56.767Z,95.08
2022-12-18T06:02:56.739Z,95.14
2022-12-18T06:03:56.713Z,95.14
2022-12-18T06:04:56.594Z,94.71
2022-12-18T06:05:56.589Z,94.24
2022-12-18T06:06:56.579Z,93.93
2022-12-18T06:07:56.600Z,93.82
2022-12-18T06:08:56.561Z,94.03
2022-12-18T06:09:56.559Z,93.82
2022-12-18T06:10:56.532Z,94.14
2022-12-18T06:11:56.536Z,94.35
2022-12-18T06:12:56.507Z,94.24
2022-12-18T06:13:59.139Z,94.64
2022-12-18T06:14:56.490Z,95.06
2022-12-18T06:15:56.517Z,94.85
2022-12-18T06:16:56.486Z,94.74
2022-12-18T06:17:56.479Z,94.21
2022-12-18T06:18:56.451Z,93.46
2022-12-18T06:19:56.466Z,92.93
2022-12-18T06:20:56.421Z,92.93
2022-12-18T06:21:56.451Z,92.39
2022-12-18T06:22:56.415Z,92.18
2022-12-18T06:23:56.441Z,92.11
2022-12-18T06:24:56.379Z,92.22
2022-12-18T06:25:56.413Z,92.43
2022-12-18T06:26:56.373Z,92.43
2022-12-18T06:27:56.429Z,92.22
2022-12-18T06:28:56.391Z,92.36
2022-12-18T06:29:56.369Z,92.25
2022-12-18T06:30:56.327Z,92.25
2022-12-18T06:31:56.412Z,91.94
2022-12-18T06:32:57.020Z,91.83
2022-12-18T06:33:56.327Z,91.94
2022-12-18T06:34:56.338Z,92.15
2022-12-18T06:36:00.870Z,91.40
2022-12-18T06:36:56.269Z,90.59
2022-12-18T06:37:56.281Z,91.02
2022-12-18T06:38:56.258Z,91.55
2022-12-18T06:39:56.261Z,91.77
2022-12-18T06:40:56.265Z,91.70
2022-12-18T06:41:56.241Z,92.23
2022-12-18T06:42:56.268Z,92.77
2022-12-18T06:43:59.763Z,92.88
2022-12-18T06:44:56.195Z,92.88
2022-12-18T06:45:56.270Z,92.34
2022-12-18T06:46:56.213Z,92.23
2022-12-18T06:47:56.192Z,92.45
2022-12-18T06:48:56.163Z,92.45
2022-12-18T06:49:56.188Z,92.34
2022-12-18T06:50:56.152Z,92.55
2022-12-18T06:51:56.182Z,92.72
2022-12-18T06:52:56.168Z,93.41
2022-12-18T06:53:56.173Z,93.80
2022-12-18T06:54:56.096Z,93.48
2022-12-18T06:55:56.109Z,93.05
2022-12-18T06:56:56.114Z,92.94
2022-12-18T06:57:56.103Z,93.48
2022-12-18T06:58:56.087Z,94.12
2022-12-18T06:59:56.075Z,94.33
2022-12-18T07:00:56.094Z,94.12
2022-12-18T07:01:56.268Z,93.97
2022-12-18T07:02:56.181Z,94.61
2022-12-18T07:03:56.048Z,94.50
2022-12-18T07:04:56.032Z,94.40
2022-12-18T07:05:56.018Z,94.07
2022-12-18T07:06:55.984Z,94.03
2022-12-18T07:07:55.995Z,93.93
2022-12-18T07:08:56.019Z,93.82
2022-12-18T07:09:56.008Z,93.93
2022-12-18T07:10:56.549Z,93.93
2022-12-18T07:11:55.956Z,93.82
2022-12-18T07:12:55.982Z,93.82
2022-12-18T07:13:55.963Z,93.71
2022-12-18T07:14:55.918Z,93.50
2022-12-18T07:15:56.011Z,93.29
2022-12-18T07:16:55.977Z,93.71
2022-12-18T07:17:55.905Z,93.82
2022-12-18T07:18:55.875Z,93.93
2022-12-18T07:19:55.896Z,93.88
2022-12-18T07:20:55.863Z,93.57
2022-12-18T07:21:55.884Z,93.46
2022-12-18T07:22:56.488Z,93.24
2022-12-18T07:23:56.085Z,93.35
2022-12-18T07:24:55.837Z,93.46
2022-12-18T07:25:55.856Z,93.46
2022-12-18T07:26:55.807Z,93.46
2022-12-18T07:27:55.813Z,93.03
2022-12-18T07:28:55.809Z,93.03
2022-12-18T07:29:55.797Z,93.24
2022-12-18T07:30:55.765Z,93.03
2022-12-18T07:31:55.914Z,92.93
2022-12-18T07:32:55.763Z,93.57
2022-12-18T07:33:55.761Z,94.21
2022-12-18T07:34:55.754Z,94.31
2022-12-18T07:35:55.735Z,94.21
2022-12-18T07:36:55.710Z,94.21
2022-12-18T07:37:55.727Z,94.27
2022-12-18T07:38:55.694Z,94.27
2022-12-18T07:39:55.742Z,94.27
2022-12-18T07:40:55.690Z,94.59
2022-12-18T07:41:55.683Z,94.27
2022-12-18T07:42:55.675Z,94.17
2022-12-18T07:43:55.673Z,94.17
2022-12-18T07:44:55.644Z,94.38
2022-12-18T07:45:55.707Z,94.27
2022-12-18T07:46:55.608Z,93.95
2022-12-18T07:47:55.621Z,93.74
2022-12-18T07:48:55.645Z,93.63
2022-12-18T07:49:55.643Z,93.59
2022-12-18T07:50:55.580Z,93.91
2022-12-18T07:51:56.336Z,93.91
2022-12-18T07:52:55.550Z,94.01
2022-12-18T07:53:55.571Z,94.01
2022-12-18T07:54:55.552Z,93.80
2022-12-18T07:56:25.350Z,93.91
2022-12-18T07:56:55.522Z,93.97
2022-12-18T07:58:00.829Z,93.97
2022-12-18T07:58:55.524Z,93.65
2022-12-18T07:59:55.511Z,93.76
2022-12-18T08:00:55.526Z,94.08
2022-12-18T08:01:55.651Z,94.18
2022-12-18T08:03:01.984Z,94.61
2022-12-18T08:03:55.475Z,94.57
2022-12-18T08:04:55.433Z,94.35
2022-12-18T08:05:55.471Z,94.46
2022-12-18T08:06:55.412Z,94.68
2022-12-18T08:07:55.432Z,95.00
2022-12-18T08:08:55.487Z,94.74
2022-12-18T08:09:55.412Z,94.53
2022-12-18T08:10:55.400Z,94.21
2022-12-18T08:11:55.455Z,94.64
2022-12-18T08:12:57.837Z,94.95
2022-12-18T08:13:55.377Z,94.85
2022-12-18T08:14:55.347Z,94.91
2022-12-18T08:15:55.353Z,94.91
2022-12-18T08:16:55.408Z,94.59
2022-12-18T08:17:55.338Z,94.06
2022-12-18T08:18:55.309Z,93.74
2022-12-18T08:19:55.313Z,93.31
2022-12-18T08:20:55.312Z,93.10
2022-12-18T08:21:55.312Z,92.89
2022-12-18T08:22:55.269Z,92.99
2022-12-18T08:23:55.286Z,93.31
2022-12-18T08:24:55.252Z,93.42
2022-12-18T08:25:55.267Z,93.63
2022-12-18T08:27:20.727Z,93.74
2022-12-18T08:27:55.264Z,92.99
2022-12-18T08:28:55.204Z,92.78
2022-12-18T08:29:55.237Z,92.57
2022-12-18T08:30:55.206Z,92.50
2022-12-18T08:31:55.257Z,92.99
2022-12-18T08:32:55.205Z,93.42
2022-12-18T08:33:55.368Z,92.99
2022-12-18T08:34:55.153Z,93.74
2022-12-18T08:35:55.188Z,94.48
2022-12-18T08:36:55.148Z,94.48
2022-12-18T08:37:55.171Z,94.55
2022-12-18T08:38:55.113Z,94.44
2022-12-18T08:39:55.136Z,94.34
2022-12-18T08:40:55.091Z,94.12
2022-12-18T08:41:55.104Z,94.44
2022-12-18T08:42:55.076Z,94.65
2022-12-18T08:43:55.106Z,94.61
2022-12-18T08:44:55.059Z,94.61
2022-12-18T08:45:55.119Z,95.04
2022-12-18T08:46:55.032Z,95.53
2022-12-18T08:47:55.088Z,95.95
2022-12-18T08:48:55.030Z,95.38
2022-12-18T08:49:55.030Z,95.81
2022-12-18T08:50:55.001Z,95.59
2022-12-18T08:51:55.035Z,95.28
2022-12-18T08:52:54.976Z,94.70
2022-12-18T08:53:55.014Z,95.02
2022-12-18T08:54:54.991Z,95.65
2022-12-18T08:55:54.968Z,95.29
2022-12-18T08:56:54.936Z,95.08
2022-12-18T08:57:54.967Z,95.08
2022-12-18T08:58:54.917Z,95.40
2022-12-18T08:59:54.943Z,95.67
2022-12-18T09:00:54.947Z,95.57
2022-12-18T09:01:55.058Z,95.36
2022-12-18T09:02:55.061Z,94.78
2022-12-18T09:03:54.894Z,94.68
2022-12-18T09:04:57.594Z,94.78
2022-12-18T09:05:54.872Z,94.25
2022-12-18T09:06:54.865Z,93.93
2022-12-18T09:07:54.872Z,94.89
2022-12-18T09:08:54.825Z,95.17
2022-12-18T09:09:54.854Z,95.06
2022-12-18T09:10:54.848Z,94.59
2022-12-18T09:11:54.817Z,94.70
2022-12-18T09:12:54.783Z,94.59
2022-12-18T09:13:54.857Z,94.38
2022-12-18T09:14:54.825Z,94.17
2022-12-18T09:15:54.766Z,94.27
2022-12-18T09:16:54.854Z,93.96
2022-12-18T09:17:54.745Z,93.70
2022-12-18T09:18:54.750Z,93.17
2022-12-18T09:19:54.715Z,93.53
2022-12-18T09:20:54.745Z,93.49
2022-12-18T09:21:54.699Z,93.00
2022-12-18T09:22:54.713Z,93.21
2022-12-18T09:23:54.700Z,93.00
2022-12-18T09:24:54.693Z,93.53
2022-12-18T09:25:54.681Z,93.64
2022-12-18T09:26:57.606Z,93.53
2022-12-18T09:27:54.639Z,93.32
2022-12-18T09:28:54.656Z,93.53
2022-12-18T09:29:54.618Z,93.74
2022-12-18T09:30:54.672Z,93.80
2022-12-18T09:31:54.617Z,93.60
2022-12-18T09:32:54.616Z,93.70
2022-12-18T09:33:54.579Z,93.91
2022-12-18T09:34:54.600Z,94.02
2022-12-18T09:35:54.568Z,93.91
2022-12-18T09:36:54.600Z,93.91
2022-12-18T09:37:54.583Z,94.09
2022-12-18T09:38:54.565Z,93.55
2022-12-18T09:39:54.535Z,93.24
2022-12-18T09:40:54.537Z,92.81
2022-12-18T09:41:54.628Z,93.55
2022-12-18T09:42:54.549Z,93.77
2022-12-18T09:43:54.502Z,93.66
2022-12-18T09:44:54.552Z,93.02
2022-12-18T09:45:54.511Z,93.09
2022-12-18T09:46:54.478Z,93.41
2022-12-18T09:47:54.455Z,93.51
2022-12-18T09:48:54.471Z,93.83
2022-12-18T09:49:54.440Z,93.41
2022-12-18T09:50:54.503Z,93.51
2022-12-18T09:51:54.414Z,93.41
2022-12-18T09:52:54.436Z,93.19
2022-12-18T09:53:54.389Z,93.41
2022-12-18T09:54:54.403Z,93.51
2022-12-18T09:55:54.367Z,93.30
2022-12-18T09:56:54.400Z,93.51
2022-12-18T09:57:54.392Z,93.51
2022-12-18T09:58:54.361Z,93.62
2022-12-18T09:59:54.326Z,93.73
2022-12-18T10:00:54.346Z,93.57
2022-12-18T10:01:54.495Z,93.47
2022-12-18T10:02:54.490Z,94.00
2022-12-18T10:03:54.383Z,93.79
2022-12-18T10:04:54.368Z,93.68
2022-12-18T10:05:54.288Z,93.43
2022-12-18T10:06:54.300Z,93.43
2022-12-18T10:07:54.253Z,94.06
2022-12-18T10:08:54.289Z,94.27
2022-12-18T10:09:54.233Z,94.13
2022-12-18T10:10:54.246Z,93.60
2022-12-18T10:11:54.223Z,93.70
2022-12-18T10:12:55.622Z,93.49
2022-12-18T10:13:54.206Z,93.66
2022-12-18T10:14:54.218Z,93.55
2022-12-18T10:15:54.185Z,93.55
2022-12-18T10:16:54.185Z,93.13
2022-12-18T10:17:54.160Z,92.92
2022-12-18T10:18:54.189Z,93.24
2022-12-18T10:19:54.136Z,93.73
2022-12-18T10:20:54.179Z,93.83
2022-12-18T10:21:54.117Z,93.51
2022-12-18T10:22:54.133Z,93.19
2022-12-18T10:23:54.093Z,93.41
2022-12-18T10:24:54.126Z,93.26
2022-12-18T10:25:54.076Z,93.15
2022-12-18T10:26:54.089Z,93.05
2022-12-18T10:27:54.056Z,93.15
2022-12-18T10:28:54.075Z,93.74
2022-12-18T10:29:54.064Z,93.43
2022-12-18T10:30:54.080Z,93.32
2022-12-18T10:31:54.013Z,92.90
2022-12-18T10:32:54.038Z,93.22
2022-12-18T10:33:53.996Z,92.79
2022-12-18T10:35:00.157Z,92.44
2022-12-18T10:35:53.985Z,92.44
2022-12-18T10:36:53.993Z,92.33
2022-12-18T10:37:53.972Z,92.22
2022-12-18T10:38:53.971Z,91.91
2022-12-18T10:39:53.952Z,92.08
2022-12-18T10:40:53.973Z,92.18
2022-12-18T10:41:53.918Z,92.18
2022-12-18T10:42:53.968Z,92.29
2022-12-18T10:43:53.899Z,92.50
2022-12-18T10:44:53.950Z,92.82
2022-12-18T10:45:53.941Z,93.03
2022-12-18T10:46:53.987Z,93.24
2022-12-18T10:47:53.857Z,93.24
2022-12-18T10:48:53.930Z,93.09
2022-12-18T10:49:53.844Z,93.09
2022-12-18T10:51:12.406Z,93.19
2022-12-18T10:51:53.860Z,93.09
2022-12-18T10:52:53.868Z,93.41
2022-12-18T10:53:53.801Z,93.41
2022-12-18T10:54:53.810Z,92.88
2022-12-18T10:55:53.789Z,92.99
2022-12-18T10:56:53.809Z,92.99
2022-12-18T10:57:53.773Z,92.67
2022-12-18T10:58:53.778Z,92.94
2022-12-18T10:59:53.749Z,92.94
2022-12-18T11:00:53.769Z,93.37
2022-12-18T11:01:54.002Z,92.94
2022-12-18T11:02:53.950Z,92.84
2022-12-18T11:03:57.699Z,92.63
2022-12-18T11:04:53.724Z,92.52
2022-12-18T11:05:53.697Z,93.11
2022-12-18T11:06:53.708Z,93.74
2022-12-18T11:07:53.673Z,93.32
2022-12-18T11:08:53.676Z,93.32
2022-12-18T11:09:53.654Z,93.74
2022-12-18T11:10:53.657Z,93.43
2022-12-18T11:11:53.653Z,92.58
2022-12-18T11:12:55.411Z,92.90
2022-12-18T11:13:53.600Z,93.32
2022-12-18T11:14:53.619Z,92.65
2022-12-18T11:15:53.645Z,92.65
2022-12-18T11:17:53.598Z,92.76
2022-12-18T11:18:53.575Z,92.40
2022-12-18T11:19:53.550Z,92.29
2022-12-18T11:20:58.300Z,92.29
2022-12-18T11:21:53.526Z,91.87
2022-12-18T11:22:53.578Z,92.19
2022-12-18T11:23:53.516Z,92.29
2022-12-18T11:25:29.690Z,92.29
2022-12-18T11:25:53.490Z,92.71
2022-12-18T11:26:59.354Z,92.04
2022-12-18T11:27:53.473Z,92.35
2022-12-18T11:28:53.509Z,92.25
2022-12-18T11:29:53.444Z,92.57
2022-12-18T11:30:53.507Z,92.35
2022-12-18T11:31:53.438Z,92.25
2022-12-18T11:32:53.444Z,92.14
2022-12-18T11:34:26.998Z,92.46
2022-12-18T11:34:58.795Z,92.35
2022-12-18T11:35:53.388Z,92.52
2022-12-18T11:36:53.400Z,92.25
2022-12-18T11:37:53.366Z,92.10
2022-12-18T11:38:53.404Z,92.84
2022-12-18T11:39:53.346Z,92.35
2022-12-18T11:40:53.353Z,92.73
2022-12-18T11:41:53.321Z,92.31
2022-12-18T11:42:53.344Z,92.42
2022-12-18T11:43:53.301Z,92.84
2022-12-18T11:44:53.324Z,93.47
2022-12-18T11:45:53.280Z,93.05
2022-12-18T11:46:53.318Z,92.84
2022-12-18T11:47:53.262Z,92.52
2022-12-18T11:48:53.283Z,92.42
2022-12-18T11:49:53.268Z,92.52
2022-12-18T11:50:54.811Z,92.94
2022-12-18T11:51:53.234Z,93.05
2022-12-18T11:52:58.215Z,92.84
2022-12-18T11:53:53.231Z,93.32
2022-12-18T11:54:53.332Z,93.22
2022-12-18T11:55:53.192Z,93.63
2022-12-18T11:56:53.191Z,93.79
2022-12-18T11:57:53.161Z,93.89
2022-12-18T11:58:53.182Z,94.10
2022-12-18T11:59:53.167Z,94.21
2022-12-18T12:00:53.158Z,94.10
2022-12-18T12:01:53.228Z,93.89
2022-12-18T12:02:53.233Z,93.89
2022-12-18T12:03:53.134Z,93.74
2022-12-18T12:04:53.118Z,93.89
2022-12-18T12:05:53.096Z,93.85
2022-12-18T12:06:53.095Z,94.17
2022-12-18T12:07:53.058Z,93.85
2022-12-18T12:08:53.098Z,93.95
2022-12-18T12:09:53.038Z,94.06
2022-12-18T12:10:53.085Z,94.06
2022-12-18T12:11:53.020Z,94.17
2022-12-18T12:12:53.031Z,93.95
2022-12-18T12:13:52.998Z,93.74
2022-12-18T12:14:53.035Z,93.95
2022-12-18T12:15:53.100Z,94.06
2022-12-18T12:16:53.008Z,94.17
2022-12-18T12:17:52.962Z,93.95
2022-12-18T12:18:52.977Z,93.95
2022-12-18T12:19:52.945Z,94.17
2022-12-18T12:20:52.956Z,94.17
2022-12-18T12:21:52.954Z,94.01
2022-12-18T12:22:52.932Z,93.91
2022-12-18T12:23:52.916Z,94.33
2022-12-18T12:24:52.906Z,94.43
2022-12-18T12:25:52.880Z,94.65
2022-12-18T12:26:52.900Z,94.23
2022-12-18T12:27:52.867Z,94.33
2022-12-18T12:28:52.881Z,94.12
2022-12-18T12:29:52.838Z,94.33
2022-12-18T12:30:52.870Z,94.33
2022-12-18T12:31:52.898Z,94.23
2022-12-18T12:32:52.852Z,94.43
2022-12-18T12:33:52.802Z,94.54
2022-12-18T12:34:59.183Z,94.23
2022-12-18T12:35:52.813Z,94.12
2022-12-18T12:37:13.770Z,94.01
2022-12-18T12:37:52.772Z,94.23
2022-12-18T12:38:52.763Z,94.43
2022-12-18T12:39:52.744Z,94.54
2022-12-18T12:40:58.843Z,94.33
2022-12-18T12:41:52.732Z,94.33
2022-12-18T12:42:52.710Z,94.43
2022-12-18T12:43:53.104Z,94.43
2022-12-18T12:44:56.250Z,94.54
2022-12-18T12:45:52.731Z,94.18
2022-12-18T12:46:52.674Z,94.23
2022-12-18T12:47:52.665Z,94.08
2022-12-18T12:48:52.652Z,94.08
2022-12-18T12:49:52.657Z,94.18
2022-12-18T12:50:52.666Z,94.12
2022-12-18T12:51:52.621Z,94.18
2022-12-18T12:52:52.615Z,94.54
2022-12-18T12:53:52.611Z,94.71